Time;durP1;ratioP1;P1;durP2;ratioP2;P2;SDS_P1;SDS_P2;PMS_P1;PMS_P2;Temp;Humidity;BMP_temperature;BMP_pressure;BME280_temperature;BME280_humidity;BME280_pressure;Samples;Min_cycle;Max_cycle;Signal;HPM_P1;HPM_P2
2022/09/04 00:01:59;;;;;;;4.05;2.00;;;;;;;24.82;45.00;99084.88;4933369;29;20031;-74
2022/09/04 00:04:28;;;;;;;3.05;2.17;;;;;;;24.81;44.89;99087.75;4916982;29;20052;-74
2022/09/04 00:07:25;;;;;;;2.45;2.00;;;;;;;24.80;44.95;99094.13;4917226;29;20110;-73
2022/09/04 00:10:22;;;;;;;2.58;1.83;;;;;;;24.77;45.01;99091.84;4917398;29;20447;-76
2022/09/04 00:12:54;;;;;;;3.00;2.03;;;;;;;24.76;44.95;99095.53;4917089;29;20085;-76
2022/09/04 00:15:23;;;;;;;2.13;1.70;;;;;;;24.71;44.96;99096.94;4917013;29;20027;-76
2022/09/04 00:18:01;;;;;;;2.38;1.70;;;;;;;24.70;44.92;99089.97;4901290;29;20043;-76
2022/09/04 00:20:52;;;;;;;2.08;1.63;;;;;;;24.71;45.15;99099.63;4933094;29;20036;-76
2022/09/04 00:23:40;;;;;;;2.20;1.70;;;;;;;24.71;45.08;99102.28;4917105;29;20109;-76
2022/09/04 00:26:09;;;;;;;4.05;2.15;;;;;;;24.71;45.28;99107.63;4917273;29;20027;-77
2022/09/04 00:28:40;;;;;;;5.32;1.85;;;;;;;24.70;45.08;99110.50;4932807;29;20051;-77
2022/09/04 00:31:27;;;;;;;2.45;1.90;;;;;;;24.69;44.87;99115.03;4917298;29;20182;-76
2022/09/04 00:34:09;;;;;;;2.53;1.83;;;;;;;24.69;45.24;99117.69;4916409;29;20044;-76
2022/09/04 00:36:37;;;;;;;2.78;1.63;;;;;;;24.65;45.23;99105.75;5011397;28;20030;-76
2022/09/04 00:39:12;;;;;;;3.83;1.92;;;;;;;24.66;45.23;99123.44;4962782;28;20136;-76
2022/09/04 00:42:04;;;;;;;2.88;1.80;;;;;;;24.65;45.17;99128.97;4978995;28;20099;-76
2022/09/04 00:45:08;;;;;;;2.95;1.67;;;;;;;24.61;45.27;99136.56;4994721;28;20449;-76
2022/09/04 00:48:01;;;;;;;5.28;1.88;;;;;;;24.58;45.49;99139.63;4932691;29;20035;-76
2022/09/04 00:51:00;;;;;;;3.13;2.17;;;;;;;24.55;45.36;99135.44;4932634;29;20619;-76
2022/09/04 00:53:34;;;;;;;4.00;2.17;;;;;;;24.48;45.54;99133.78;4918359;29;20192;-76
2022/09/04 00:56:25;;;;;;;5.53;2.47;;;;;;;24.49;45.45;99136.25;4933104;29;20035;-76
2022/09/04 00:59:24;;;;;;;3.38;2.20;;;;;;;24.53;45.73;99144.69;4922192;29;20534;-75
2022/09/04 01:01:54;;;;;;;3.80;2.53;;;;;;;24.47;45.61;99143.63;4936594;29;20032;-75
2022/09/04 01:04:23;;;;;;;6.53;2.83;;;;;;;24.51;45.54;99162.72;4911955;29;20056;-76
2022/09/04 01:06:59;;;;;;;6.72;2.60;;;;;;;24.49;45.64;99156.78;4917698;29;20028;-76
2022/09/04 01:09:53;;;;;;;4.72;2.50;;;;;;;24.40;45.49;99153.47;4901949;29;20044;-76
2022/09/04 01:12:31;;;;;;;5.40;2.60;;;;;;;24.44;45.64;99170.72;4917393;29;20032;-77
2022/09/04 01:15:10;;;;;;;;;;;;;;;24.43;45.84;99168.22;4918280;29;20041;-77
2022/09/04 01:17:46;;;;;;;8.40;2.97;;;;;;;24.38;45.88;99163.47;4901251;29;19911;-77
2022/09/04 01:20:33;;;;;;;5.20;3.00;;;;;;;24.38;46.14;99160.81;4901586;29;20104;-77
2022/09/04 01:23:29;;;;;;;5.80;2.70;;;;;;;24.37;45.96;99169.84;4922223;28;20039;-77
2022/09/04 01:25:59;;;;;;;5.18;2.95;;;;;;;24.34;46.20;99168.41;4939113;29;20043;-76
2022/09/04 01:29:00;;;;;;;5.97;2.92;;;;;;;24.34;46.16;99176.41;4955673;28;20043;-76
2022/09/04 01:31:32;;;;;;;6.68;2.88;;;;;;;24.33;46.45;99176.59;4955424;28;20067;-77
2022/09/04 01:34:07;;;;;;;5.82;2.88;;;;;;;24.32;46.40;99183.78;4938827;29;20039;-76
2022/09/04 01:36:57;;;;;;;5.63;3.00;;;;;;;24.31;46.40;99182.13;4939360;29;20047;-76
2022/09/04 01:39:23;;;;;;;6.65;2.70;;;;;;;24.29;46.57;99189.50;4938939;29;20131;-76
2022/09/04 01:41:52;;;;;;;7.18;3.10;;;;;;;24.27;46.66;99175.53;4955145;28;20077;-76
2022/09/04 01:44:17;;;;;;;6.70;2.80;;;;;;;24.28;46.50;99179.03;4938249;29;20043;-76
2022/09/04 01:46:52;;;;;;;5.93;2.95;;;;;;;24.27;46.56;99193.38;4939300;29;20042;-76
2022/09/04 01:49:27;;;;;;;9.98;2.97;;;;;;;24.24;46.71;99188.44;4938761;29;20050;-77
2022/09/04 01:52:23;;;;;;;5.22;2.60;;;;;;;24.26;46.48;99183.72;4938855;29;20050;-77
2022/09/04 01:55:00;;;;;;;4.88;3.00;;;;;;;24.26;46.46;99179.22;4947463;29;20050;-76
2022/09/04 01:58:12;;;;;;;5.40;2.83;;;;;;;24.20;46.46;99175.47;4954880;29;20066;-75
2022/09/04 02:00:50;;;;;;;4.18;2.47;;;;;;;24.23;46.32;99181.44;4895459;29;20044;-76
2022/09/04 02:03:24;;;;;;;3.38;2.47;;;;;;;24.16;46.21;99174.25;4916150;29;20116;-76
2022/09/04 02:06:08;;;;;;;2.90;2.17;;;;;;;24.19;46.25;99175.69;4899754;29;20040;-76
2022/09/04 02:08:40;;;;;;;3.05;2.40;;;;;;;24.18;46.39;99174.03;4915329;29;20047;-75
2022/09/04 02:11:11;;;;;;;6.03;2.60;;;;;;;24.15;46.28;99175.25;4915491;29;20044;-76
2022/09/04 02:14:03;;;;;;;3.17;2.30;;;;;;;24.15;46.39;99171.78;4915543;29;20524;-76
2022/09/04 02:17:19;;;;;;;4.43;2.55;;;;;;;24.13;46.29;99168.44;4915784;29;20467;-75
2022/09/04 02:20:06;;;;;;;3.78;2.60;;;;;;;24.10;46.67;99171.50;4896115;29;20041;-76
2022/09/04 02:22:53;;;;;;;4.60;2.30;;;;;;;24.07;46.59;99171.88;4896374;29;20048;-76
2022/09/04 02:25:21;;;;;;;3.95;2.50;;;;;;;24.07;46.72;99172.72;4896425;29;20076;-76
2022/09/04 02:27:47;;;;;;;;;;;;;;;24.07;46.52;99162.06;4880984;29;20048;-76
2022/09/04 02:30:14;;;;;;;2.90;2.13;;;;;;;23.98;46.69;99150.72;4896324;29;19915;-76
2022/09/04 02:32:42;;;;;;;2.83;2.30;;;;;;;24.03;46.66;99169.59;4865231;29;20049;-75
2022/09/04 02:35:10;;;;;;;6.10;2.40;;;;;;;24.02;46.65;99162.66;4895652;29;20041;-72
2022/09/04 02:37:59;;;;;;;4.97;2.40;;;;;;;24.02;46.53;99170.66;4895401;29;20142;-73
2022/09/04 02:40:49;;;;;;;4.10;2.47;;;;;;;24.00;46.66;99175.34;4933869;29;20051;-72
2022/09/04 02:43:31;;;;;;;3.38;2.20;;;;;;;23.97;46.56;99175.75;4917650;29;20090;-72
2022/09/04 02:46:20;;;;;;;4.60;2.10;;;;;;;23.96;46.65;99168.75;4917915;29;20047;-72
2022/09/04 02:49:14;;;;;;;3.20;2.30;;;;;;;23.93;46.59;99181.66;4917932;29;20046;-72
2022/09/04 02:51:54;;;;;;;4.32;2.30;;;;;;;23.91;46.83;99179.19;4901755;29;20056;-72
2022/09/04 02:54:25;;;;;;;4.20;2.20;;;;;;;23.88;46.98;99184.91;4962228;28;20105;-73
2022/09/04 02:57:13;;;;;;;3.30;2.42;;;;;;;23.83;46.88;99179.25;4992631;28;20050;-72
2022/09/04 02:59:50;;;;;;;3.97;2.53;;;;;;;23.84;46.83;99180.94;4975575;28;20034;-72
2022/09/04 03:02:33;;;;;;;3.28;2.10;;;;;;;23.82;46.83;99181.13;4975970;28;20030;-72
2022/09/04 03:05:03;;;;;;;2.95;2.50;;;;;;;23.76;46.90;99171.22;4966483;28;1201962;-72
2022/09/04 03:07:33;;;;;;;3.05;2.10;;;;;;;23.77;46.91;99180.06;4964581;28;20038;-73
2022/09/04 03:10:17;;;;;;;3.03;2.10;;;;;;;23.76;47.24;99176.53;5013312;28;20087;-72
2022/09/04 03:12:54;;;;;;;3.58;2.35;;;;;;;23.75;47.19;99179.41;4995977;28;20520;-72
2022/09/04 03:15:31;;;;;;;4.28;2.47;;;;;;;23.74;47.29;99183.91;4996298;28;20109;-72
2022/09/04 03:18:12;;;;;;;6.68;2.30;;;;;;;23.75;47.11;99190.91;4979432;28;20390;-72
2022/09/04 03:21:15;;;;;;;7.40;2.13;;;;;;;23.73;47.17;99182.25;5013612;28;20046;-73
2022/09/04 03:23:52;;;;;;;4.63;2.40;;;;;;;23.73;46.80;99187.59;4999370;28;20033;-72
2022/09/04 03:26:30;;;;;;;4.70;2.72;;;;;;;23.74;47.18;99191.91;5033195;28;20033;-72
2022/09/04 03:29:07;;;;;;;3.30;2.47;;;;;;;23.75;46.86;99190.06;4999760;28;20087;-72
2022/09/04 03:32:04;;;;;;;3.17;2.38;;;;;;;23.71;47.03;99194.16;5016381;28;20029;-72
2022/09/04 03:34:45;;;;;;;3.22;2.30;;;;;;;23.75;47.16;99206.06;5001461;28;20073;-72
2022/09/04 03:37:32;;;;;;;3.92;2.35;;;;;;;23.75;46.91;99204.25;5015404;28;20032;-72
2022/09/04 03:40:22;;;;;;;2.42;2.20;;;;;;;23.75;46.91;99208.72;5015630;28;20036;-73
2022/09/04 03:42:56;;;;;;;3.03;2.40;;;;;;;23.75;46.61;99214.91;5033367;28;20037;-73
2022/09/04 03:45:46;;;;;;;3.88;2.75;;;;;;;23.74;46.59;99220.41;5014951;28;20041;-73
2022/09/04 03:48:29;;;;;;;3.45;2.58;;;;;;;23.73;46.67;99218.75;5033381;28;20029;-72
2022/09/04 03:51:14;;;;;;;3.58;2.40;;;;;;;23.73;46.81;99226.75;5033052;28;20455;-73
2022/09/04 03:53:40;;;;;;;3.17;2.38;;;;;;;23.73;46.65;99224.09;5014546;28;20025;-74
2022/09/04 03:56:42;;;;;;;3.60;2.30;;;;;;;23.73;46.59;99218.75;4998490;28;20048;-73
2022/09/04 03:59:32;;;;;;;2.65;2.38;;;;;;;23.70;46.62;99219.94;4952502;28;20458;-73
2022/09/04 04:02:11;;;;;;;3.80;2.30;;;;;;;23.75;46.50;99230.03;4952618;29;20047;-73
2022/09/04 04:04:42;;;;;;;3.10;2.42;;;;;;;23.74;46.39;99236.41;4952385;29;20047;-72
2022/09/04 04:07:21;;;;;;;3.00;2.30;;;;;;;23.71;46.25;99228.78;4952764;29;20055;-73
2022/09/04 04:10:18;;;;;;;2.90;2.20;;;;;;;23.75;46.23;99238.88;4951841;29;20043;-72
2022/09/04 04:13:09;;;;;;;3.05;2.25;;;;;;;23.74;46.24;99237.22;4943627;29;20467;-74
2022/09/04 04:16:14;;;;;;;3.40;2.58;;;;;;;23.74;46.23;99234.56;4952686;29;20130;-73
2022/09/04 04:18:43;;;;;;;3.13;2.30;;;;;;;23.74;46.22;99239.88;4952158;29;20105;-73
2022/09/04 04:21:27;;;;;;;2.50;2.10;;;;;;;23.73;45.89;99238.22;4936155;29;20034;-72
2022/09/04 04:24:04;;;;;;;2.83;2.10;;;;;;;23.76;46.00;99245.03;4935188;29;20473;-72
2022/09/04 04:26:39;;;;;;;2.50;2.03;;;;;;;23.75;45.75;99244.22;4952501;29;20035;-72
2022/09/04 04:29:29;;;;;;;3.70;2.00;;;;;;;23.77;45.38;99242.19;4952604;29;20105;-73
2022/09/04 04:32:14;;;;;;;4.15;2.22;;;;;;;23.78;45.37;99243.84;4916244;29;20036;-72
2022/09/04 04:34:49;;;;;;;2.47;2.05;;;;;;;23.79;45.23;99255.31;4916713;29;20083;-73
2022/09/04 04:37:25;;;;;;;3.00;1.85;;;;;;;23.77;45.35;99252.03;4978735;28;20107;-72
2022/09/04 04:40:10;;;;;;;2.75;2.10;;;;;;;23.77;45.18;99255.50;4963763;28;20143;-72
2022/09/04 04:42:48;;;;;;;2.67;1.90;;;;;;;23.79;45.27;99250.78;4952045;28;20194;-72
2022/09/04 04:48:22;;;;;;;2.97;1.73;;;;;;;23.83;45.17;99253.91;4952226;29;20566;-73
2022/09/04 04:51:22;;;;;;;2.70;1.90;;;;;;;23.88;45.34;99272.03;4952260;29;20483;-73
2022/09/04 04:53:56;;;;;;;2.60;1.90;;;;;;;23.87;45.23;99267.72;4951170;29;20047;-73
2022/09/04 04:56:33;;;;;;;3.20;2.00;;;;;;;23.93;45.02;99264.31;4920391;29;20039;-73
2022/09/04 04:59:22;;;;;;;2.53;1.63;;;;;;;23.97;44.88;99270.88;4951388;29;20077;-72
2022/09/04 05:02:13;;;;;;;3.53;2.00;;;;;;;23.99;44.71;99267.03;4936397;29;20090;-73
2022/09/04 05:04:44;;;;;;;3.80;1.80;;;;;;;24.04;44.63;99271.78;4951547;29;20171;-73
2022/09/04 05:07:47;;;;;;;2.45;1.92;;;;;;;24.11;44.50;99269.97;4966697;28;20070;-73
2022/09/04 05:10:30;;;;;;;3.03;1.90;;;;;;;24.20;44.34;99278.69;4970953;28;20038;-73
2022/09/04 05:13:17;;;;;;;3.83;1.85;;;;;;;24.32;44.04;99284.31;4971054;28;20193;-73
2022/09/04 05:15:56;;;;;;;2.45;1.92;;;;;;;24.53;43.65;99280.81;4954446;28;20185;-73
2022/09/04 05:18:36;;;;;;;2.20;1.80;;;;;;;24.86;42.58;99282.88;4939529;28;20031;-73
2022/09/04 05:21:20;;;;;;;2.80;1.80;;;;;;;25.48;41.34;99286.47;5014998;28;20554;-72
2022/09/04 05:24:02;;;;;;;2.50;1.88;;;;;;;25.96;40.57;99293.59;5032123;28;20091;-73
2022/09/04 05:26:43;;;;;;;2.15;1.58;;;;;;;26.85;38.81;99289.72;4997828;28;20034;-72
2022/09/04 05:29:40;;;;;;;2.55;1.75;;;;;;;27.79;36.97;99292.81;5031625;28;20029;-72
2022/09/04 05:32:33;;;;;;;2.20;1.35;;;;;;;28.22;35.99;99302.06;4951597;29;20105;-72
2022/09/04 05:35:26;;;;;;;2.67;1.90;;;;;;;28.38;35.35;99300.69;4951547;29;20058;-73
2022/09/04 05:38:14;;;;;;;4.00;1.60;;;;;;;29.10;33.37;99307.44;4935326;29;20050;-72
2022/09/04 05:40:57;;;;;;;3.55;1.67;;;;;;;29.82;32.24;99299.53;4951796;29;20032;-72
2022/09/04 05:43:37;;;;;;;2.35;1.42;;;;;;;30.07;31.85;99294.00;4952661;28;20038;-72
2022/09/04 05:46:41;;;;;;;2.45;1.42;;;;;;;29.94;31.86;99292.31;4924493;29;20037;-73
2022/09/04 05:49:29;;;;;;;3.40;1.30;;;;;;;29.85;31.67;99298.28;4954543;29;20031;-73
2022/09/04 05:52:06;;;;;;;4.03;1.60;;;;;;;29.77;31.78;99300.19;4924890;29;20065;-73
2022/09/04 05:55:03;;;;;;;7.60;1.70;;;;;;;29.90;31.93;99312.69;4923588;29;20046;-73
2022/09/04 05:58:02;;;;;;;3.70;1.70;;;;;;;29.90;31.30;99307.31;4954764;29;20039;-72
2022/09/04 06:00:34;;;;;;;3.38;1.70;;;;;;;30.06;31.47;99310.38;4954309;29;20320;-74
2022/09/04 06:03:33;;;;;;;2.30;1.58;;;;;;;30.46;30.97;99313.28;4922962;29;20039;-71
2022/09/04 06:06:14;;;;;;;2.28;1.60;;;;;;;30.37;30.95;99314.63;4954711;29;20051;-73
2022/09/04 06:08:47;;;;;;;2.42;1.60;;;;;;;30.07;30.93;99303.94;4984129;28;20072;-73
2022/09/04 06:11:40;;;;;;;4.07;1.50;;;;;;;29.84;31.89;99305.53;5001051;28;20520;-80
2022/09/04 06:14:24;;;;;;;2.03;1.33;;;;;;;29.69;32.34;99310.47;5036604;28;20389;-85
2022/09/04 06:17:29;;;;;;;12.63;2.10;;;;;;;29.55;32.64;99309.81;5019432;28;20029;-79
2022/09/04 06:20:28;;;;;;;7.35;1.70;;;;;;;29.46;32.70;99319.25;5015779;28;20034;-88
2022/09/04 06:22:59;;;;;;;6.18;1.40;;;;;;;29.45;32.80;99331.06;5025937;28;20029;-85
2022/09/04 06:25:57;;;;;;;3.00;1.77;;;;;;;29.30;32.76;99328.75;5015784;28;20021;-82
2022/09/04 06:28:52;;;;;;;2.83;1.80;;;;;;;28.92;33.92;99316.34;4952912;29;20447;-82
2022/09/04 06:31:17;;;;;;;3.15;1.77;;;;;;;28.73;34.45;99318.19;4952981;29;20043;-81
2022/09/04 06:33:58;;;;;;;12.25;1.83;;;;;;;28.65;34.52;99309.34;4953090;29;20105;-82
2022/09/04 06:36:45;;;;;;;11.63;1.90;;;;;;;28.76;34.99;99307.81;4952383;29;20527;-77
2022/09/04 06:39:21;;;;;;;18.10;2.30;;;;;;;29.65;33.45;99298.50;4950372;29;20527;-74
2022/09/04 06:42:39;;;;;;;27.67;3.28;;;;;;;30.56;31.41;99299.22;4919851;29;20031;-79
2022/09/04 06:45:05;;;;;;;6.13;1.80;;;;;;;31.54;30.04;99304.00;4900927;29;20053;-81
2022/09/04 06:47:52;;;;;;;5.40;1.77;;;;;;;31.82;29.54;99300.47;4895283;29;20035;-77
2022/09/04 06:50:31;;;;;;;9.93;1.95;;;;;;;31.75;29.31;99310.59;4895332;29;20073;-78
2022/09/04 06:53:42;;;;;;;7.97;1.50;;;;;;;31.49;29.76;99312.78;4902791;29;20524;-85
2022/09/04 06:56:28;;;;;;;3.80;1.58;;;;;;;32.26;29.21;99306.09;4895189;29;20036;-79
2022/09/04 06:59:28;;;;;;;3.30;1.52;;;;;;;32.53;28.65;99316.25;4898614;29;20044;-76
2022/09/04 07:02:14;;;;;;;2.88;1.65;;;;;;;32.47;27.84;99312.63;4895759;29;20029;-83
2022/09/04 07:05:08;;;;;;;3.53;1.73;;;;;;;32.32;28.12;99303.47;4932788;29;20051;-82
2022/09/04 07:07:46;;;;;;;4.00;1.60;;;;;;;32.39;28.39;99317.66;4938893;29;20131;-83
2022/09/04 07:10:13;;;;;;;;;;;;;;;32.11;28.48;99319.34;4953900;29;20039;-85
2022/09/04 07:12:57;;;;;;;3.15;1.70;;;;;;;31.69;28.60;99311.56;4938076;29;19918;-83
2022/09/04 07:15:40;;;;;;;5.25;1.48;;;;;;;31.30;29.34;99314.84;4940451;29;20498;-83
2022/09/04 07:18:17;;;;;;;2.50;1.70;;;;;;;30.94;29.85;99313.25;4928390;28;20503;-82
2022/09/04 07:21:47;;;;;;;2.85;1.65;;;;;;;30.57;31.00;99316.19;5015865;28;20508;-84
2022/09/04 07:24:26;;;;;;;2.97;1.73;;;;;;;30.29;31.20;99306.91;4895706;29;20048;-83
2022/09/04 07:27:00;;;;;;;2.58;1.80;;;;;;;30.13;31.35;99295.75;4880141;29;20036;-84
2022/09/04 07:29:53;;;;;;;5.13;1.90;;;;;;;29.90;32.01;99295.72;4896223;29;20040;-82
2022/09/04 07:32:23;;;;;;;4.28;1.83;;;;;;;29.87;32.33;99301.53;4878243;29;20111;-83
2022/09/04 07:34:56;;;;;;;6.18;2.10;;;;;;;29.72;32.20;99307.31;4895771;29;20080;-83
2022/09/04 07:37:40;;;;;;;3.70;1.90;;;;;;;29.55;32.87;99294.50;4896148;29;20033;-83
2022/09/04 07:40:08;;;;;;;3.20;2.00;;;;;;;29.54;32.79;99300.09;4895756;29;20852;-83
2022/09/04 07:42:59;;;;;;;2.55;1.80;;;;;;;29.52;32.92;99288.75;4895754;29;20041;-83
2022/09/04 07:45:28;;;;;;;3.80;1.75;;;;;;;29.65;32.66;99293.97;4895500;29;20033;-81
2022/09/04 07:48:05;;;;;;;5.07;1.92;;;;;;;29.83;32.51;99290.44;4895776;29;20063;-85
2022/09/04 07:50:36;;;;;;;3.97;1.95;;;;;;;30.05;32.26;99295.28;4879738;29;20493;-79
2022/09/04 07:53:32;;;;;;;3.05;1.70;;;;;;;30.09;32.22;99299.97;4879692;29;20143;-79
2022/09/04 07:56:00;;;;;;;5.20;1.80;;;;;;;29.87;32.61;99301.53;4949686;29;20043;-80
2022/09/04 07:58:43;;;;;;;12.07;2.42;;;;;;;29.79;32.28;99294.63;4951174;28;20031;-81
2022/09/04 08:01:27;;;;;;;7.35;2.00;;;;;;;29.62;32.63;99288.22;4971440;28;20040;-77
2022/09/04 08:03:56;;;;;;;6.25;1.90;;;;;;;29.59;32.68;99297.56;5030701;28;20048;-79
2022/09/04 08:06:36;;;;;;;5.10;1.80;;;;;;;29.51;33.00;99295.19;5012801;28;20045;-78
2022/09/04 08:09:32;;;;;;;11.05;1.98;;;;;;;29.41;32.91;99298.41;5011401;28;20029;-79
2022/09/04 08:12:10;;;;;;;3.72;1.98;;;;;;;29.42;33.28;99298.19;4996519;28;20029;-81
2022/09/04 08:14:48;;;;;;;5.95;2.25;;;;;;;29.50;32.88;99296.25;5028010;28;20028;-76
2022/09/04 08:17:25;;;;;;;9.88;3.00;;;;;;;29.44;33.24;99297.16;5012782;28;20091;-76
2022/09/04 08:20:15;;;;;;;12.77;2.65;;;;;;;29.25;33.18;99277.53;5030927;28;20080;-77
2022/09/04 08:22:40;;;;;;;24.02;3.10;;;;;;;29.31;33.84;99303.53;5011001;28;20123;-79
2022/09/04 08:25:21;;;;;;;21.50;2.35;;;;;;;29.15;33.83;99315.69;5012751;28;20056;-78
2022/09/04 08:27:51;;;;;;;7.57;2.42;;;;;;;29.06;34.06;99301.69;4979640;28;20036;-79
2022/09/04 08:30:19;;;;;;;8.80;2.25;;;;;;;29.06;34.32;99309.75;5009916;28;20785;-79
2022/09/04 08:33:02;;;;;;;;;;;;;;;29.03;34.44;99308.38;4980541;28;20116;-78
2022/09/04 08:35:45;;;;;;;5.28;1.88;;;;;;;29.07;34.32;99313.28;5029142;28;19959;-80
2022/09/04 08:38:36;;;;;;;6.78;2.00;;;;;;;29.13;34.24;99307.84;5011963;28;20032;-80
2022/09/04 08:41:25;;;;;;;11.63;2.60;;;;;;;29.27;33.85;99319.28;5010783;28;20052;-78
2022/09/04 08:44:19;;;;;;;25.98;3.50;;;;;;;29.28;34.25;99306.66;5011841;28;20037;-79
2022/09/04 08:47:05;;;;;;;16.00;3.42;;;;;;;29.28;34.11;99291.34;5010816;28;20079;-79
2022/09/04 08:49:45;;;;;;;22.40;4.60;;;;;;;29.35;33.84;99300.16;5028547;28;20029;-78
2022/09/04 08:52:26;;;;;;;12.13;2.60;;;;;;;29.37;34.06;99300.75;5028786;28;20072;-80
2022/09/04 08:55:15;;;;;;;17.13;3.40;;;;;;;29.38;33.87;99299.72;5012395;28;20040;-78
2022/09/04 08:57:47;;;;;;;8.50;2.60;;;;;;;29.47;34.08;99304.78;5013269;28;20026;-79
2022/09/04 09:00:13;;;;;;;15.50;3.53;;;;;;;29.54;33.76;99306.31;4996051;28;20025;-79
2022/09/04 09:02:53;;;;;;;8.02;3.33;;;;;;;29.51;33.74;99306.78;5012274;28;20036;-79
2022/09/04 09:05:24;;;;;;;5.05;3.00;;;;;;;29.59;33.83;99309.16;5027384;28;20530;-79
2022/09/04 09:08:13;;;;;;;8.52;2.95;;;;;;;29.68;33.42;99306.13;5012440;28;20116;-79
2022/09/04 09:10:44;;;;;;;10.85;3.00;;;;;;;29.82;33.07;99306.81;4949149;29;20156;-78
2022/09/04 09:13:18;;;;;;;4.78;2.47;;;;;;;29.90;33.06;99303.78;4949748;29;20131;-78
2022/09/04 09:15:59;;;;;;;6.43;2.30;;;;;;;30.07;33.23;99291.28;4947927;29;20035;-77
2022/09/04 09:19:00;;;;;;;6.93;2.97;;;;;;;30.31;32.85;99289.47;4947431;28;20056;-78
2022/09/04 09:21:43;;;;;;;6.57;2.10;;;;;;;30.40;31.94;99302.63;4922975;29;20526;-77
2022/09/04 09:24:17;;;;;;;6.53;3.40;;;;;;;30.41;32.21;99298.84;4936264;29;20039;-77
2022/09/04 09:27:08;;;;;;;6.38;2.30;;;;;;;30.52;32.05;99295.38;4951695;29;20512;-75
2022/09/04 09:29:46;;;;;;;3.60;2.60;;;;;;;30.67;31.37;99300.28;4939902;29;20023;-81
2022/09/04 09:32:30;;;;;;;6.80;2.63;;;;;;;30.84;31.21;99303.09;4953693;29;20430;-84
2022/09/04 09:35:10;;;;;;;7.15;2.67;;;;;;;30.86;30.86;99309.03;4937592;29;20089;-86
2022/09/04 09:38:06;;;;;;;10.32;4.13;;;;;;;30.95;31.16;99307.63;4956805;29;20039;-90
2022/09/04 09:40:38;;;;;;;6.33;3.73;;;;;;;31.00;31.05;99310.47;4941376;29;20114;-89
2022/09/04 09:43:40;;;;;;;4.30;3.20;;;;;;;31.06;30.79;99303.31;4959203;29;20035;-88
2022/09/04 09:46:24;;;;;;;5.35;4.13;;;;;;;31.08;30.80;99300.38;4948833;29;20501;-89
2022/09/04 09:49:17;;;;;;;10.40;3.00;;;;;;;30.96;31.24;99313.84;5035487;28;20049;-88
2022/09/04 09:51:49;;;;;;;4.25;2.85;;;;;;;30.92;31.51;99313.50;5038032;28;20093;-84
2022/09/04 09:54:28;;;;;;;7.13;2.92;;;;;;;30.94;31.37;99321.34;5017965;28;20028;-84
2022/09/04 09:57:25;;;;;;;4.13;2.40;;;;;;;30.78;31.40;99329.09;5001638;28;20542;-86
2022/09/04 10:00:07;;;;;;;5.33;2.60;;;;;;;30.55;31.50;99334.47;5035973;28;20104;-80
2022/09/04 10:02:54;;;;;;;3.88;2.33;;;;;;;30.16;32.25;99318.72;5015033;28;20272;-86
2022/09/04 10:05:50;;;;;;;2.80;2.50;;;;;;;30.06;32.87;99324.66;5004418;28;20511;-85
2022/09/04 10:08:55;;;;;;;4.45;2.40;;;;;;;29.91;32.67;99325.06;4999292;28;20378;-75
2022/09/04 10:11:31;;;;;;;3.55;2.33;;;;;;;29.74;33.73;99313.28;5016275;28;20049;-77
2022/09/04 10:14:02;;;;;;;4.15;2.28;;;;;;;29.72;33.49;99326.97;5015378;28;20022;-77
2022/09/04 10:16:41;;;;;;;3.67;2.47;;;;;;;29.67;33.59;99329.53;5017154;28;20040;-76
2022/09/04 10:19:15;;;;;;;4.75;2.65;;;;;;;29.73;33.33;99328.63;5016441;28;20029;-75
2022/09/04 10:21:49;;;;;;;12.32;2.83;;;;;;;29.74;33.30;99318.66;5016965;28;20139;-74
2022/09/04 10:24:28;;;;;;;4.60;2.35;;;;;;;29.71;33.23;99321.81;5034539;28;20031;-75
2022/09/04 10:27:02;;;;;;;3.88;2.40;;;;;;;29.71;33.22;99314.56;5014568;28;20060;-76
2022/09/04 10:29:47;;;;;;;2.97;2.38;;;;;;;29.77;33.34;99305.56;5030787;28;20156;-77
2022/09/04 10:32:30;;;;;;;4.95;2.28;;;;;;;29.78;33.20;99293.78;5032030;28;20033;-77
2022/09/04 10:35:08;;;;;;;2.95;2.15;;;;;;;29.77;33.55;99289.44;5013996;28;20167;-77
2022/09/04 10:37:42;;;;;;;;;;;;;;;29.91;33.09;99291.97;5030878;28;20052;-75
2022/09/04 10:40:40;;;;;;;4.13;2.33;;;;;;;29.99;32.80;99291.63;5014028;28;19994;-76
2022/09/04 10:43:27;;;;;;;8.25;2.95;;;;;;;30.12;33.21;99290.59;5002142;28;20508;-76
2022/09/04 10:46:13;;;;;;;7.28;2.50;;;;;;;30.13;33.00;99289.56;4999854;28;20124;-76
2022/09/04 10:49:11;;;;;;;8.50;2.72;;;;;;;30.20;33.07;99286.75;5016447;28;20033;-75
2022/09/04 10:51:42;;;;;;;3.20;2.20;;;;;;;30.19;33.06;99282.41;5016459;28;20405;-75
2022/09/04 10:54:08;;;;;;;7.07;2.28;;;;;;;30.13;33.04;99285.00;5033971;28;20035;-75
2022/09/04 10:56:47;;;;;;;4.13;2.38;;;;;;;30.16;33.21;99282.88;5016405;28;20535;-77
2022/09/04 10:59:45;;;;;;;3.80;2.42;;;;;;;29.94;33.03;99288.81;5001863;28;20151;-78
2022/09/04 11:02:16;;;;;;;5.93;2.50;;;;;;;29.89;33.38;99278.75;4993170;28;20133;-79
2022/09/04 11:08:17;;;;;;;2.33;2.08;;;;;;;30.00;33.06;99274.44;4954437;29;20562;-78
2022/09/04 11:11:20;;;;;;;3.13;2.42;;;;;;;29.84;32.92;99272.41;4953847;29;20050;-79
2022/09/04 11:13:55;;;;;;;3.42;2.42;;;;;;;29.58;33.53;99261.75;4953923;29;20110;-78
2022/09/04 11:16:49;;;;;;;5.80;2.42;;;;;;;29.52;33.29;99251.09;4953924;29;20035;-76
2022/09/04 11:19:33;;;;;;;4.07;2.40;;;;;;;29.53;33.44;99242.81;4951725;29;20500;-78
2022/09/04 11:22:20;;;;;;;3.47;2.67;;;;;;;29.59;33.36;99238.41;4953268;29;20039;-78
2022/09/04 11:25:13;;;;;;;3.72;2.65;;;;;;;29.50;33.31;99245.97;4934543;29;20048;-84
2022/09/04 11:27:50;;;;;;;4.32;2.85;;;;;;;29.33;33.51;99236.91;4934579;29;20036;-82
2022/09/04 11:30:25;;;;;;;4.30;2.42;;;;;;;29.33;33.78;99243.06;4934893;29;20035;-83
2022/09/04 11:33:36;;;;;;;4.03;2.70;;;;;;;29.24;34.04;99244.47;4919527;29;20031;-83
2022/09/04 11:36:04;;;;;;;5.70;2.80;;;;;;;29.24;34.10;99249.84;4934969;29;20557;-83
2022/09/04 11:39:03;;;;;;;3.05;2.75;;;;;;;29.21;34.63;99245.72;4934889;29;20044;-84
2022/09/04 11:41:56;;;;;;;4.55;3.00;;;;;;;29.26;34.47;99233.50;4932082;29;20059;-83
2022/09/04 11:44:40;;;;;;;4.28;3.00;;;;;;;29.09;33.85;99234.06;4934552;28;20038;-77
2022/09/04 11:47:28;;;;;;;3.67;2.75;;;;;;;29.09;34.36;99222.50;4970761;28;20042;-78
2022/09/04 11:50:06;;;;;;;4.03;2.72;;;;;;;28.98;34.50;99238.31;4960904;28;20414;-79
2022/09/04 11:52:46;;;;;;;5.07;2.97;;;;;;;28.99;34.03;99241.84;4976537;28;20030;-79
2022/09/04 11:55:32;;;;;;;5.55;3.03;;;;;;;29.02;34.39;99236.03;4994711;28;20158;-79
2022/09/04 11:58:19;;;;;;;3.60;3.00;;;;;;;29.18;34.20;99227.34;4970279;28;20037;-82
2022/09/04 12:01:22;;;;;;;3.13;2.60;;;;;;;29.12;33.75;99222.06;4962549;28;20190;-85
2022/09/04 12:04:21;;;;;;;6.95;2.80;;;;;;;29.25;33.21;99213.81;4990673;28;20029;-78
2022/09/04 12:07:12;;;;;;;8.40;2.80;;;;;;;29.26;33.40;99212.78;4976623;28;20049;-83
2022/09/04 12:10:25;;;;;;;2.88;2.38;;;;;;;29.29;33.52;99208.81;4991681;28;20046;-75
2022/09/04 12:13:02;;;;;;;3.90;2.70;;;;;;;29.30;33.64;99205.09;4972297;28;20561;-76
2022/09/04 12:15:49;;;;;;;;;;;;;;;29.21;33.46;99196.53;4990033;28;20088;-77
2022/09/04 12:18:38;;;;;;;4.10;2.13;;;;;;;29.11;33.40;99199.72;4972806;28;20041;-76
2022/09/04 12:21:09;;;;;;;2.92;2.30;;;;;;;28.96;33.31;99185.88;4985325;28;20033;-79
2022/09/04 12:23:57;;;;;;;2.40;2.20;;;;;;;28.96;33.70;99191.25;4973420;28;20026;-78
2022/09/04 12:26:48;;;;;;;2.80;1.95;;;;;;;28.91;33.72;99189.22;4956590;28;20498;-79
2022/09/04 12:29:26;;;;;;;5.35;2.17;;;;;;;28.94;33.73;99196.84;4990609;28;20101;-80
2022/09/04 12:32:05;;;;;;;2.60;1.98;;;;;;;28.96;33.61;99180.50;4990191;28;20042;-78
2022/09/04 12:34:55;;;;;;;3.13;2.17;;;;;;;28.91;33.36;99188.41;4955611;28;20104;-77
2022/09/04 12:37:42;;;;;;;3.58;2.40;;;;;;;28.91;34.38;99178.50;4971444;28;20038;-79
2022/09/04 12:40:33;;;;;;;3.20;2.23;;;;;;;28.91;34.07;99183.03;4971821;28;20030;-77
2022/09/04 12:43:29;;;;;;;4.55;2.17;;;;;;;28.85;34.04;99177.50;4973913;28;20026;-75
2022/09/04 12:46:13;;;;;;;2.83;2.00;;;;;;;28.74;34.20;99170.22;4990571;28;20054;-79
2022/09/04 12:49:05;;;;;;;3.85;2.10;;;;;;;28.65;34.10;99172.38;4973234;28;20522;-76
2022/09/04 12:51:56;;;;;;;3.53;2.22;;;;;;;28.56;34.50;99171.03;4973088;28;20109;-79
2022/09/04 12:54:23;;;;;;;5.82;2.47;;;;;;;28.64;34.65;99168.06;4994695;28;20033;-84
2022/09/04 12:57:10;;;;;;;3.37;1.93;;;;;;;28.61;34.24;99176.56;4978813;28;20038;-79